ZHHH

Wuhan Tianhe International Airport

Airport
ICAO code
ZHHH
IATA Code
WUH
Summary
ICAO Region
APAC
ICAO Territory
Location

Wuhan, Hubei

Serving
Wuhan
Elevation
113 ft
Coordinates
30° 47' 1" N , 114° 12' 29" E
KCC
Cfa
Metar
Observation
ZHHH 171000Z 11004MPS CAVOK 37/25 Q1002 NOSIG
Station
Wuhan
Date/Time
2022-08-17 10:00:00
Wind direction
110°
Lowest cloud amount
clouds and visibility OK
Temperature
37°C
Dew point
25°C
Humidity
50%
QNH
1002 hPa
Weather condition
n/a

Description

Wuhan Tianhe International Airport serves Wuhan, the capital of the Hubei Province, China. The airport is located around 26 km to the north of Wuhan city center.

Climatology

Humid subtropical climate (Köppen climate classification Cfa.) Hot muggy summers with frequent thunderstorms. Winters are mild and precipitation during this season comes from mid-latitude cyclones. This climate type is quite common on the east coasts of continents.

Airport map

Aerial View

SKYbrary Partners:

Safety knowledge contributed by: